createdAt,value
2023-05-25T00:01:02.065Z,6.37
2023-05-25T00:05:05.325Z,6.43
2023-05-25T00:09:07.766Z,6.67
2023-05-25T00:13:10.636Z,6.23
2023-05-25T00:17:12.494Z,5.97
2023-05-25T00:21:18.432Z,6.33
2023-05-25T00:25:21.012Z,5.20
2023-05-25T00:29:22.902Z,5.47
2023-05-25T00:33:24.743Z,6.43
2023-05-25T00:37:27.043Z,6.63
2023-05-25T00:41:28.962Z,6.70
2023-05-25T00:45:30.696Z,5.87
2023-05-25T00:49:34.941Z,7.20
2023-05-25T00:53:37.267Z,6.83
2023-05-25T00:57:39.086Z,6.50
2023-05-25T01:01:40.918Z,5.93
2023-05-25T01:05:44.685Z,6.53
2023-05-25T01:09:46.793Z,7.00
2023-05-25T01:13:54.051Z,6.67
2023-05-25T01:17:59.968Z,6.57
2023-05-25T01:22:05.348Z,5.90
2023-05-25T01:26:08.940Z,6.30
2023-05-25T01:30:12.882Z,6.33
2023-05-25T01:34:14.664Z,6.10
2023-05-25T01:38:17.768Z,5.93
2023-05-25T01:42:19.644Z,5.50
2023-05-25T01:46:35.408Z,6.40
2023-05-25T01:50:56.230Z,5.60
2023-05-25T01:55:03.848Z,6.07
2023-05-25T01:59:05.704Z,5.67
2023-05-25T02:03:15.549Z,5.63
2023-05-25T02:07:23.554Z,6.17
2023-05-25T02:11:38.618Z,5.90
2023-05-25T02:15:46.847Z,6.00
2023-05-25T02:19:59.956Z,6.20
2023-05-25T02:24:10.611Z,6.00
2023-05-25T02:28:12.342Z,5.83
2023-05-25T02:32:14.351Z,5.77
2023-05-25T02:36:16.467Z,5.90
2023-05-25T02:40:18.263Z,6.17
2023-05-25T02:44:20.199Z,5.97
2023-05-25T02:48:22.111Z,5.90
2023-05-25T02:52:25.781Z,5.47
2023-05-25T02:56:31.393Z,6.63
2023-05-25T03:00:33.143Z,5.67
2023-05-25T03:04:37.949Z,6.27
2023-05-25T03:08:40.819Z,5.40
2023-05-25T03:12:42.648Z,5.87
2023-05-25T03:16:44.469Z,5.60
2023-05-25T03:20:46.289Z,5.83
2023-05-25T03:24:49.558Z,5.70
2023-05-25T03:28:51.757Z,5.63
2023-05-25T03:32:53.622Z,6.67
2023-05-25T03:36:55.628Z,6.67
2023-05-25T03:40:57.333Z,5.90
2023-05-25T03:44:59.181Z,5.90
2023-05-25T03:49:00.947Z,6.17
2023-05-25T03:53:02.690Z,6.57
2023-05-25T03:57:04.617Z,6.60
2023-05-25T04:01:06.416Z,7.57
2023-05-25T04:05:08.661Z,6.57
2023-05-25T04:09:10.416Z,6.90
2023-05-25T04:13:12.797Z,6.70
2023-05-25T04:17:14.720Z,6.43
2023-05-25T04:21:16.843Z,5.53
2023-05-25T04:25:19.967Z,6.17
2023-05-25T04:29:21.765Z,5.50
2023-05-25T04:33:24.667Z,5.83
2023-05-25T04:37:27.671Z,5.50
2023-05-25T04:41:30.109Z,5.93
2023-05-25T04:45:34.774Z,5.83
2023-05-25T04:49:36.737Z,5.53
2023-05-25T04:53:42.661Z,5.87
2023-05-25T04:57:47.174Z,5.93
2023-05-25T05:01:54.771Z,6.00
2023-05-25T05:06:03.226Z,5.97
2023-05-25T05:10:06.387Z,6.10
2023-05-25T05:14:08.240Z,5.63
2023-05-25T05:18:10.216Z,5.83
2023-05-25T05:22:15.503Z,6.88
2023-05-25T05:26:17.353Z,7.22
2023-05-25T05:30:19.188Z,6.00
2023-05-25T05:34:21.536Z,6.20
2023-05-25T05:38:23.374Z,6.05
2023-05-25T05:42:25.285Z,5.32
2023-05-25T05:46:27.381Z,5.78
2023-05-25T05:50:29.229Z,5.10
2023-05-25T05:54:33.698Z,5.88
2023-05-25T05:58:35.557Z,5.40
2023-05-25T06:02:39.247Z,4.97
2023-05-25T06:06:43.297Z,4.70
2023-05-25T06:10:45.139Z,4.93
2023-05-25T06:14:50.098Z,4.85
2023-05-25T06:18:51.820Z,5.20
2023-05-25T06:22:53.938Z,4.90
2023-05-25T06:26:58.103Z,4.80
2023-05-25T06:31:00.157Z,4.35
2023-05-25T06:35:02.322Z,4.90
2023-05-25T06:39:04.241Z,4.30
2023-05-25T06:43:06.084Z,4.80
2023-05-25T06:47:07.947Z,4.60
2023-05-25T06:51:17.088Z,5.25
2023-05-25T06:55:21.838Z,4.75
2023-05-25T06:59:23.692Z,5.20
2023-05-25T07:03:25.570Z,6.32
2023-05-25T07:07:27.522Z,5.78
2023-05-25T07:11:29.321Z,4.97
2023-05-25T07:15:31.185Z,5.55
2023-05-25T07:19:32.959Z,5.30
2023-05-25T07:23:34.832Z,4.60
2023-05-25T07:27:36.688Z,4.95
2023-05-25T07:31:38.700Z,4.82
2023-05-25T07:35:40.628Z,4.20
2023-05-25T07:39:42.772Z,3.85
2023-05-25T07:43:44.612Z,4.45
2023-05-25T07:47:46.521Z,4.63
2023-05-25T07:51:50.970Z,3.83
2023-05-25T07:55:52.739Z,3.90
2023-05-25T07:59:54.600Z,4.00
2023-05-25T08:03:56.764Z,3.53
2023-05-25T08:07:58.663Z,3.70
2023-05-25T08:12:24.181Z,3.75
2023-05-25T08:16:23.275Z,3.47
2023-05-25T08:20:26.063Z,4.32
2023-05-25T08:24:27.922Z,5.05
2023-05-25T08:28:29.865Z,4.47
2023-05-25T08:32:31.703Z,4.13
2023-05-25T08:36:34.619Z,4.43
2023-05-25T08:40:36.460Z,4.20
2023-05-25T08:44:39.074Z,4.45
2023-05-25T08:48:42.705Z,3.47
2023-05-25T08:52:46.046Z,4.40
2023-05-25T08:56:56.131Z,4.03
2023-05-25T09:01:02.231Z,3.55
2023-05-25T09:05:04.181Z,4.70
2023-05-25T09:09:06.012Z,3.83
2023-05-25T09:17:17.160Z,4.40
2023-05-25T09:21:18.956Z,4.15
2023-05-25T09:25:20.898Z,3.92
2023-05-25T09:29:36.412Z,4.65
2023-05-25T09:33:41.176Z,4.60
2023-05-25T09:37:49.579Z,4.63
2023-05-25T09:41:51.522Z,4.67
2023-05-25T09:45:53.671Z,4.60
2023-05-25T09:49:56.359Z,4.33
2023-05-25T09:53:58.406Z,4.10
2023-05-25T09:58:00.227Z,4.03
2023-05-25T10:02:02.553Z,4.63
2023-05-25T10:06:04.567Z,4.13
2023-05-25T10:10:08.010Z,4.07
2023-05-25T10:14:09.873Z,4.60
2023-05-25T10:18:11.786Z,3.80
2023-05-25T10:22:40.133Z,4.10
2023-05-25T10:26:43.523Z,3.97
2023-05-25T10:30:45.674Z,4.90
2023-05-25T10:34:47.516Z,4.47
2023-05-25T10:38:51.074Z,3.53
2023-05-25T10:42:52.941Z,4.37
2023-05-25T10:46:54.863Z,4.30
2023-05-25T10:50:57.867Z,4.00
2023-05-25T10:55:02.042Z,3.80
2023-05-25T10:59:04.021Z,4.03
2023-05-25T11:03:06.136Z,4.30
2023-05-25T11:07:13.377Z,4.27
2023-05-25T11:11:15.931Z,4.23
2023-05-25T11:15:18.284Z,3.90
2023-05-25T11:19:21.468Z,4.63
2023-05-25T11:23:24.013Z,4.47
2023-05-25T11:27:28.028Z,5.10
2023-05-25T11:31:39.084Z,4.30
2023-05-25T11:35:45.610Z,3.97
2023-05-25T11:39:53.994Z,4.07
2023-05-25T11:43:56.986Z,3.80
2023-05-25T11:47:58.957Z,4.27
2023-05-25T11:52:04.814Z,3.90
2023-05-25T11:56:08.369Z,4.40
2023-05-25T12:00:11.626Z,4.60
2023-05-25T12:04:13.767Z,4.27
2023-05-25T12:08:18.223Z,3.93
2023-05-25T12:12:20.515Z,4.37
2023-05-25T12:16:23.993Z,3.73
2023-05-25T12:20:26.048Z,4.10
2023-05-25T12:24:28.105Z,3.60
2023-05-25T12:28:30.260Z,4.07
2023-05-25T12:32:32.208Z,4.03
2023-05-25T12:36:47.978Z,3.80
2023-05-25T12:41:05.313Z,3.27
2023-05-25T12:45:07.511Z,3.63
2023-05-25T12:49:28.565Z,3.80
2023-05-25T12:53:31.372Z,3.20
2023-05-25T12:57:36.401Z,3.57
2023-05-25T13:01:38.239Z,3.20
2023-05-25T13:05:40.044Z,3.63
2023-05-25T13:09:42.714Z,3.50
2023-05-25T13:13:45.015Z,3.63
2023-05-25T13:17:48.050Z,3.43
2023-05-25T13:21:50.814Z,3.63
2023-05-25T13:25:52.567Z,3.13
2023-05-25T13:29:54.389Z,3.27
2023-05-25T13:33:58.073Z,3.33
2023-05-25T13:37:59.923Z,3.60
2023-05-25T13:42:02.928Z,3.80
2023-05-25T13:46:05.550Z,3.70
2023-05-25T13:50:07.668Z,3.80
2023-05-25T13:54:09.551Z,3.30
2023-05-25T13:58:11.337Z,3.50
2023-05-25T14:02:13.303Z,3.57
2023-05-25T14:06:15.138Z,3.60
2023-05-25T14:10:17.006Z,3.50
2023-05-25T14:14:31.319Z,3.23
2023-05-25T14:18:34.150Z,3.20
2023-05-25T14:22:36.171Z,3.87
2023-05-25T14:26:38.423Z,5.03
2023-05-25T14:30:40.197Z,3.87
2023-05-25T14:34:42.033Z,4.07
2023-05-25T14:38:45.218Z,3.40
2023-05-25T14:42:47.122Z,3.90
2023-05-25T14:46:48.951Z,3.83
2023-05-25T14:50:51.097Z,3.50
2023-05-25T14:54:52.892Z,3.43
2023-05-25T14:58:54.688Z,3.50
2023-05-25T15:02:56.564Z,3.60
2023-05-25T15:06:58.658Z,3.87
2023-05-25T15:11:00.585Z,3.50
2023-05-25T15:15:05.414Z,3.60
2023-05-25T15:19:10.695Z,4.17
2023-05-25T15:23:13.823Z,3.70
2023-05-25T15:27:15.658Z,3.83
2023-05-25T15:31:17.579Z,3.83
2023-05-25T15:35:19.434Z,3.60
2023-05-25T15:39:21.392Z,3.80
2023-05-25T15:43:23.187Z,3.60
2023-05-25T15:47:24.991Z,3.60
2023-05-25T15:51:26.887Z,3.50
2023-05-25T15:55:28.720Z,3.90
2023-05-25T15:59:30.694Z,3.90
2023-05-25T16:03:32.537Z,3.70
2023-05-25T16:07:34.368Z,4.40
2023-05-25T16:11:36.244Z,3.37
2023-05-25T16:15:37.995Z,3.97
2023-05-25T16:19:39.857Z,3.93
2023-05-25T16:23:41.870Z,3.47
2023-05-25T16:27:43.708Z,3.77
2023-05-25T16:31:51.038Z,4.00
2023-05-25T16:35:53.879Z,3.53
2023-05-25T16:39:55.731Z,4.10
2023-05-25T16:43:57.559Z,4.00
2023-05-25T16:47:59.541Z,3.83
2023-05-25T16:52:04.666Z,3.87
2023-05-25T16:56:13.735Z,3.50
2023-05-25T17:00:18.224Z,3.67
2023-05-25T17:04:19.974Z,3.70
2023-05-25T17:08:24.109Z,3.90
2023-05-25T17:12:26.326Z,3.63
2023-05-25T17:16:28.224Z,4.17
2023-05-25T17:20:30.130Z,4.10
2023-05-25T17:24:34.774Z,4.30
2023-05-25T17:28:42.193Z,4.00
2023-05-25T17:33:01.870Z,4.10
2023-05-25T17:37:21.468Z,3.83
2023-05-25T17:41:50.423Z,4.67
2023-05-25T17:50:23.988Z,3.77
2023-05-25T17:54:32.394Z,3.90
2023-05-25T17:59:04.056Z,4.27
2023-05-25T18:03:51.582Z,3.90
2023-05-25T18:07:59.200Z,3.77
2023-05-25T18:12:36.264Z,3.90
2023-05-25T18:23:16.261Z,4.07
2023-05-25T18:41:32.593Z,4.20
2023-05-25T18:50:13.674Z,4.37
2023-05-25T18:54:41.857Z,4.23
2023-05-25T18:58:50.790Z,4.07
2023-05-25T19:03:34.058Z,4.90
2023-05-25T19:12:35.344Z,4.10
2023-05-25T19:16:37.817Z,4.57
2023-05-25T19:20:40.345Z,4.20
2023-05-25T19:24:44.297Z,5.17
2023-05-25T19:28:50.277Z,4.20
2023-05-25T19:32:52.516Z,4.20
2023-05-25T19:37:07.503Z,4.90
2023-05-25T19:41:13.316Z,4.43
2023-05-25T19:45:15.316Z,4.63
2023-05-25T19:49:26.268Z,3.60
2023-05-25T19:53:31.602Z,4.10
2023-05-25T19:57:33.475Z,4.90
2023-05-25T20:01:35.785Z,4.47
2023-05-25T20:05:37.602Z,4.23
2023-05-25T20:09:39.914Z,3.87
2023-05-25T20:13:41.955Z,4.33
2023-05-25T20:17:49.991Z,4.23
2023-05-25T20:21:52.060Z,4.20
2023-05-25T20:25:53.913Z,4.17
2023-05-25T20:29:55.790Z,4.10
2023-05-25T20:33:57.563Z,4.30
2023-05-25T20:37:59.298Z,4.47
2023-05-25T20:42:02.635Z,4.70
2023-05-25T20:46:04.459Z,4.63
2023-05-25T20:50:06.687Z,4.77
2023-05-25T20:54:08.417Z,4.43
2023-05-25T20:58:10.433Z,4.23
2023-05-25T21:02:12.211Z,4.10
2023-05-25T21:06:17.129Z,4.47
2023-05-25T21:10:19.043Z,4.50
2023-05-25T21:14:21.148Z,4.00
2023-05-25T21:18:22.883Z,4.30
2023-05-25T21:22:24.710Z,3.93
2023-05-25T21:26:26.805Z,4.00
2023-05-25T21:30:28.572Z,4.37
2023-05-25T21:34:30.607Z,4.43
2023-05-25T21:38:32.375Z,4.30
2023-05-25T21:42:34.094Z,3.90
2023-05-25T21:46:37.026Z,4.10
2023-05-25T21:50:39.874Z,4.40
2023-05-25T21:54:43.936Z,3.90
2023-05-25T21:58:46.351Z,4.37
2023-05-25T22:02:48.911Z,4.67
2023-05-25T22:06:50.770Z,4.17
2023-05-25T22:10:52.713Z,4.47
2023-05-25T22:14:56.837Z,4.27
2023-05-25T22:18:58.865Z,4.00
2023-05-25T22:23:00.619Z,4.67
2023-05-25T22:27:05.906Z,4.17
2023-05-25T22:31:07.689Z,4.53
2023-05-25T22:35:09.644Z,4.50
2023-05-25T22:39:11.512Z,4.13
2023-05-25T22:43:16.102Z,4.53
2023-05-25T22:47:18.019Z,4.70
2023-05-25T22:51:19.958Z,4.17
2023-05-25T22:55:21.693Z,5.00
2023-05-25T22:59:23.505Z,4.60
2023-05-25T23:03:25.532Z,4.60
2023-05-25T23:07:27.497Z,4.30
2023-05-25T23:11:29.200Z,4.47
2023-05-25T23:15:31.386Z,4.80
2023-05-25T23:19:33.488Z,5.27
2023-05-25T23:23:37.731Z,4.33
2023-05-25T23:27:39.947Z,4.60
2023-05-25T23:31:41.761Z,4.40
2023-05-25T23:35:43.762Z,4.80
2023-05-25T23:39:45.778Z,4.43
2023-05-25T23:43:47.621Z,4.67
2023-05-25T23:47:49.350Z,4.43
2023-05-25T23:51:51.185Z,4.70
2023-05-25T23:55:52.906Z,5.30
2023-05-25T23:59:54.611Z,4.60
